createdAt,value
2019-06-01T00:03:06.055Z,98925.36
2019-06-01T00:09:35.767Z,98933.84
2019-06-01T00:19:39.935Z,98926.70
2019-06-01T00:25:57.564Z,98925.52
2019-06-01T00:32:15.421Z,98928.37
2019-06-01T00:38:36.510Z,98926.30
2019-06-01T00:45:09.597Z,98923.38
2019-06-01T00:51:30.312Z,98919.31
2019-06-01T00:57:49.714Z,98921.67
2019-06-01T01:04:08.222Z,98927.00
2019-06-01T01:10:38.739Z,98915.72
2019-06-01T01:20:43.041Z,98918.31
2019-06-01T01:27:00.531Z,98910.36
2019-06-01T01:33:18.613Z,98917.67
2019-06-01T01:39:36.527Z,98916.97
2019-06-01T01:46:06.650Z,98912.85
2019-06-01T01:52:26.398Z,98907.97
2019-06-01T01:58:44.263Z,98907.53
2019-06-01T02:05:13.872Z,98903.58
2019-06-01T02:11:30.796Z,98908.45
2019-06-01T02:21:35.770Z,98905.94
2019-06-01T02:27:55.622Z,98904.81
2019-06-01T02:34:13.486Z,98906.27
2019-06-01T02:40:42.932Z,98904.59
2019-06-01T02:47:01.547Z,98898.66
2019-06-01T02:53:19.232Z,98900.89
2019-06-01T02:59:36.660Z,98894.82
2019-06-01T03:06:08.622Z,98893.78
2019-06-01T03:12:27.883Z,98891.55
2019-06-01T03:22:33.449Z,98881.37
2019-06-01T03:28:53.700Z,98878.63
2019-06-01T03:35:13.162Z,98882.05
2019-06-01T03:41:45.693Z,98879.59
2019-06-01T03:48:04.634Z,98876.73
2019-06-01T03:54:22.131Z,98877.67
2019-06-01T04:00:39.813Z,98883.13
2019-06-01T04:07:10.737Z,98875.89
2019-06-01T04:13:28.827Z,98883.33
2019-06-01T04:23:31.950Z,98893.02
2019-06-01T04:29:50.759Z,98892.69
2019-06-01T04:36:07.494Z,98896.42
2019-06-01T04:42:37.833Z,98906.14
2019-06-01T04:48:57.408Z,98906.34
2019-06-01T04:55:15.728Z,98913.11
2019-06-01T05:01:33.691Z,98913.11
2019-06-01T05:08:05.184Z,98913.22
2019-06-01T05:14:24.147Z,98905.15
2019-06-01T05:24:30.169Z,98904.89
2019-06-01T05:30:48.402Z,98902.06
2019-06-01T05:37:06.345Z,98894.82
2019-06-01T05:43:36.818Z,98901.69
2019-06-01T05:49:54.924Z,98898.20
2019-06-01T05:55:36.935Z,98896.30
2019-06-01T06:01:54.986Z,98901.84
2019-06-01T06:08:25.393Z,98890.70
2019-06-01T06:14:42.945Z,98893.03
2019-06-01T06:24:48.983Z,98895.29
2019-06-01T06:31:07.066Z,98898.27
2019-06-01T06:37:24.716Z,98891.86
2019-06-01T06:43:55.152Z,98892.25
2019-06-01T06:50:17.905Z,98886.92
2019-06-01T06:56:00.276Z,98891.53
2019-06-01T07:02:18.818Z,98888.81
2019-06-01T07:08:49.211Z,98889.73
2019-06-01T07:15:07.721Z,98879.66
2019-06-01T07:25:12.984Z,98870.45
2019-06-01T07:31:32.497Z,98865.63
2019-06-01T07:37:53.191Z,98863.45
2019-06-01T07:43:47.696Z,98865.30
2019-06-01T07:50:09.735Z,98859.64
2019-06-01T07:56:30.350Z,98847.46
2019-06-01T08:02:47.917Z,98849.27
2019-06-01T08:09:22.044Z,98846.22
2019-06-01T08:15:40.660Z,98832.31
2019-06-01T08:25:46.555Z,98841.61
2019-06-01T08:32:05.039Z,98840.94
2019-06-01T08:38:25.676Z,98841.87
2019-06-01T08:44:20.227Z,98827.72
2019-06-01T08:50:38.804Z,98825.23
2019-06-01T08:56:57.039Z,98831.86
2019-06-01T09:03:15.171Z,98828.88
2019-06-01T09:09:45.373Z,98827.58
2019-06-01T09:16:07.181Z,98816.28
2019-06-01T09:26:12.586Z,98817.81
2019-06-01T09:32:30.571Z,98813.95
2019-06-01T09:38:48.394Z,98813.39
2019-06-01T09:45:19.074Z,98813.18
2019-06-01T09:51:37.810Z,98806.48
2019-06-01T09:57:55.734Z,98796.73
2019-06-01T10:04:14.027Z,98797.05
2019-06-01T10:10:44.419Z,98791.45
2019-06-01T10:17:02.159Z,98782.50
2019-06-01T10:27:08.191Z,98788.46
2019-06-01T10:33:39.044Z,98792.62
2019-06-01T10:39:57.467Z,98781.61
2019-06-01T10:46:15.714Z,98771.86
2019-06-01T10:52:36.313Z,98763.76
2019-06-01T10:59:07.892Z,98770.75
2019-06-01T11:05:26.112Z,98762.08
2019-06-01T11:11:07.922Z,98758.58
2019-06-01T11:17:26.374Z,98748.07
2019-06-01T11:27:44.012Z,98740.31
2019-06-01T11:34:14.679Z,98740.86
2019-06-01T11:40:32.284Z,98732.59
2019-06-01T11:46:50.000Z,98725.36
2019-06-01T11:53:08.198Z,98719.26
2019-06-01T11:59:25.767Z,98709.69
2019-06-01T12:05:46.074Z,98709.26
2019-06-01T12:12:15.587Z,98694.34
2019-06-01T12:18:34.203Z,98693.62
2019-06-01T12:28:39.539Z,98685.13
2019-06-01T12:34:56.488Z,98678.94
2019-06-01T12:41:26.134Z,98665.19
2019-06-01T12:47:43.927Z,98667.62
2019-06-01T12:54:01.837Z,98657.73
2019-06-01T12:59:45.173Z,98656.42
2019-06-01T13:06:03.066Z,98645.75
2019-06-01T13:12:33.322Z,98638.61
2019-06-01T13:18:51.757Z,98630.06
2019-06-01T13:28:56.453Z,98618.29
2019-06-01T13:35:16.821Z,98611.61
2019-06-01T13:41:34.189Z,98604.09
2019-06-01T13:48:04.398Z,98604.31
2019-06-01T13:54:22.390Z,98590.06
2019-06-01T14:00:04.424Z,98587.05
2019-06-01T14:06:22.453Z,98579.73
2019-06-01T14:12:53.486Z,98571.87
2019-06-01T14:19:11.281Z,98562.41
2019-06-01T14:29:15.973Z,98561.50
2019-06-01T14:35:35.652Z,98559.61
2019-06-01T14:41:51.537Z,98550.80
2019-06-01T14:48:20.827Z,98547.04
2019-06-01T14:54:37.552Z,98535.76
2019-06-01T15:00:20.667Z,98534.89
2019-06-01T15:06:37.690Z,98528.06
2019-06-01T15:13:07.893Z,98526.27
2019-06-01T15:19:24.658Z,98518.70
2019-06-01T15:25:41.578Z,98514.79
2019-06-01T15:31:47.846Z,98509.02
2019-06-01T15:38:17.105Z,98506.38
2019-06-01T15:44:34.127Z,98499.40
2019-06-01T15:50:52.108Z,98496.13
2019-06-01T15:57:09.014Z,98481.88
2019-06-01T16:03:38.642Z,98475.54
2019-06-01T16:09:55.493Z,98474.13
2019-06-01T16:16:13.019Z,98465.47
2019-06-01T16:22:32.417Z,98462.00
2019-06-01T16:25:35.908Z,98465.34
2019-06-01T16:31:20.537Z,98463.00
2019-06-01T16:37:37.962Z,98464.75
2019-06-01T16:44:07.487Z,98466.95
2019-06-01T16:50:25.073Z,98457.95
2019-06-01T16:56:07.525Z,98453.48
2019-06-01T17:02:26.095Z,98458.46
2019-06-01T17:08:56.661Z,98455.75
2019-06-01T17:15:15.638Z,98451.48
2019-06-01T17:21:33.734Z,98452.64
2019-06-01T17:31:53.384Z,98445.67
2019-06-01T17:37:56.753Z,98447.44
2019-06-01T17:44:26.143Z,98446.84
2019-06-01T17:50:43.947Z,98449.58
2019-06-01T17:56:25.716Z,98447.36
2019-06-01T18:02:43.494Z,98448.13
2019-06-01T18:09:01.948Z,98446.02
2019-06-01T18:15:31.618Z,98443.89
2019-06-01T18:21:48.906Z,98444.03
2019-06-01T18:31:53.481Z,98451.86
2019-06-01T18:38:12.796Z,98444.00
2019-06-01T18:44:30.020Z,98448.48
2019-06-01T18:51:00.414Z,98453.20
2019-06-01T18:56:42.791Z,98451.14
2019-06-01T19:03:00.807Z,98452.27
2019-06-01T19:09:17.624Z,98449.91
2019-06-01T19:15:47.227Z,98457.67
2019-06-01T19:22:06.300Z,98463.53
2019-06-01T19:32:21.076Z,98469.08
2019-06-01T19:38:39.569Z,98470.09
2019-06-01T19:44:59.298Z,98476.91
2019-06-01T19:51:28.706Z,98477.30
2019-06-01T19:57:17.966Z,98486.53
2019-06-01T20:03:31.902Z,98484.55
2019-06-01T20:09:49.122Z,98492.87
2019-06-01T20:16:20.226Z,98499.87
2019-06-01T20:22:37.932Z,98499.78
2019-06-01T20:32:41.194Z,98497.67
2019-06-01T20:39:03.877Z,98501.69
2019-06-01T20:45:18.769Z,98501.07
2019-06-01T20:51:48.405Z,98502.53
2019-06-01T20:57:42.849Z,98504.21
2019-06-01T21:04:00.402Z,98509.59
2019-06-01T21:10:20.416Z,98509.13
2019-06-01T21:16:48.964Z,98512.08
2019-06-01T21:23:06.531Z,98506.91
2019-06-01T21:33:10.320Z,98500.64
2019-06-01T21:39:27.762Z,98507.88
2019-06-01T21:45:45.441Z,98500.91
2019-06-01T21:52:15.786Z,98498.80
2019-06-01T21:58:12.404Z,98497.86
2019-06-01T22:04:30.923Z,98491.61
2019-06-01T22:10:50.173Z,98492.27
2019-06-01T22:17:20.351Z,98492.39
2019-06-01T22:23:38.697Z,98491.93
2019-06-01T22:33:42.314Z,98489.91
2019-06-01T22:39:59.976Z,98483.16
2019-06-01T22:46:17.435Z,98483.84
2019-06-01T22:52:46.635Z,98480.44
2019-06-01T22:58:41.289Z,98479.38
2019-06-01T23:04:59.991Z,98476.54
2019-06-01T23:11:16.741Z,98477.03
2019-06-01T23:17:46.027Z,98474.88
2019-06-01T23:24:03.765Z,98465.36
2019-06-01T23:34:07.971Z,98477.11
2019-06-01T23:40:26.549Z,98476.84
2019-06-01T23:46:43.643Z,98467.62
2019-06-01T23:53:14.125Z,98462.02
2019-06-01T23:59:19.679Z,98464.16
